createdAt,value
2018-12-25T00:02:28.589Z,4.15
2018-12-25T00:04:57.378Z,5.25
2018-12-25T00:07:26.104Z,4.85
2018-12-25T00:09:54.877Z,4.90
2018-12-25T00:12:23.649Z,5.25
2018-12-25T00:14:52.459Z,4.97
2018-12-25T00:17:21.200Z,5.03
2018-12-25T00:19:49.968Z,4.20
2018-12-25T00:22:18.789Z,4.95
2018-12-25T00:24:47.543Z,5.80
2018-12-25T00:27:16.318Z,6.03
2018-12-25T00:29:45.101Z,4.40
2018-12-25T00:32:13.861Z,5.35
2018-12-25T00:34:42.667Z,5.22
2018-12-25T00:37:11.489Z,6.00
2018-12-25T00:39:40.229Z,4.22
2018-12-25T00:42:09.427Z,4.80
2018-12-25T00:44:38.260Z,5.70
2018-12-25T00:47:07.342Z,6.40
2018-12-25T00:49:36.510Z,5.00
2018-12-25T00:52:05.657Z,5.78
2018-12-25T00:54:34.461Z,6.22
2018-12-25T00:57:03.213Z,5.90
2018-12-25T00:59:31.981Z,4.22
2018-12-25T01:02:02.238Z,5.65
2018-12-25T01:04:31.192Z,5.53
2018-12-25T01:06:59.992Z,6.90
2018-12-25T01:09:28.834Z,5.85
2018-12-25T01:11:57.743Z,6.25
2018-12-25T01:14:26.518Z,7.80
2018-12-25T01:16:55.305Z,18.73
2018-12-25T01:19:24.097Z,5.92
2018-12-25T01:21:52.887Z,5.87
2018-12-25T01:24:21.633Z,6.47
2018-12-25T01:26:50.462Z,5.08
2018-12-25T01:29:19.278Z,5.70
2018-12-25T01:31:48.045Z,5.20
2018-12-25T01:34:16.791Z,6.03
2018-12-25T01:36:45.535Z,6.55
2018-12-25T01:39:14.305Z,6.95
2018-12-25T01:41:43.354Z,6.05
2018-12-25T01:44:12.127Z,7.33
2018-12-25T01:46:40.881Z,8.60
2018-12-25T01:49:09.612Z,8.10
2018-12-25T01:51:38.391Z,7.20
2018-12-25T01:54:07.201Z,8.28
2018-12-25T01:56:35.960Z,8.60
2018-12-25T01:59:04.703Z,9.10
2018-12-25T02:01:33.465Z,8.80
2018-12-25T02:04:02.244Z,8.13
2018-12-25T02:06:31.045Z,7.47
2018-12-25T02:08:59.822Z,8.93
2018-12-25T02:11:28.933Z,8.78
2018-12-25T02:13:57.673Z,6.35
2018-12-25T02:16:26.401Z,7.30
2018-12-25T02:18:55.156Z,9.13
2018-12-25T02:21:23.929Z,7.80
2018-12-25T02:23:52.770Z,8.48
2018-12-25T02:26:21.561Z,7.60
2018-12-25T02:28:50.368Z,7.60
2018-12-25T02:31:19.179Z,6.03
2018-12-25T02:33:47.992Z,5.75
2018-12-25T02:36:16.765Z,6.67
2018-12-25T02:38:45.602Z,6.53
2018-12-25T02:41:14.415Z,6.80
2018-12-25T02:43:44.622Z,5.70
2018-12-25T02:46:13.372Z,6.75
2018-12-25T02:48:43.566Z,6.10
2018-12-25T02:51:12.372Z,6.55
2018-12-25T02:53:41.110Z,6.58
2018-12-25T02:56:09.878Z,7.37
2018-12-25T02:58:38.641Z,6.40
2018-12-25T03:01:07.428Z,5.33
2018-12-25T03:03:36.193Z,6.53
2018-12-25T03:06:04.988Z,5.97
2018-12-25T03:08:33.820Z,7.12
2018-12-25T03:11:02.585Z,5.75
2018-12-25T03:13:31.394Z,6.70
2018-12-25T03:16:00.220Z,5.67
2018-12-25T03:18:28.957Z,6.03
2018-12-25T03:20:57.963Z,6.65
2018-12-25T03:23:26.733Z,7.22
2018-12-25T03:25:55.460Z,6.35
2018-12-25T03:28:24.242Z,6.50
2018-12-25T03:30:52.999Z,7.55
2018-12-25T03:33:21.754Z,6.42
2018-12-25T03:35:50.564Z,7.20
2018-12-25T03:38:19.304Z,7.12
2018-12-25T03:40:48.050Z,6.47
2018-12-25T03:43:16.816Z,4.97
2018-12-25T03:45:45.586Z,5.22
2018-12-25T03:48:14.400Z,5.80
2018-12-25T03:50:43.246Z,5.62
2018-12-25T03:53:12.325Z,5.28
2018-12-25T03:55:41.082Z,4.45
2018-12-25T03:58:09.855Z,5.37
2018-12-25T04:00:38.622Z,4.35
2018-12-25T04:03:07.341Z,4.30
2018-12-25T04:05:36.090Z,4.87
2018-12-25T04:08:04.859Z,5.30
2018-12-25T04:10:33.955Z,5.35
2018-12-25T04:13:03.174Z,4.12
2018-12-25T04:15:31.931Z,4.65
2018-12-25T04:18:00.715Z,4.20
2018-12-25T04:20:29.558Z,4.85
2018-12-25T04:22:58.292Z,4.10
2018-12-25T04:25:27.032Z,4.33
2018-12-25T04:27:55.835Z,3.90
2018-12-25T04:30:24.548Z,4.75
2018-12-25T04:32:53.323Z,4.33
2018-12-25T04:35:22.093Z,4.00
2018-12-25T04:37:50.873Z,4.20
2018-12-25T04:40:19.605Z,3.98
2018-12-25T04:42:48.357Z,4.08
2018-12-25T04:45:17.093Z,3.72
2018-12-25T04:47:45.879Z,3.67
2018-12-25T04:50:14.635Z,3.92
2018-12-25T04:52:43.380Z,3.37
2018-12-25T04:55:12.104Z,3.22
2018-12-25T04:57:40.866Z,2.90
2018-12-25T05:00:10.019Z,3.30
2018-12-25T05:02:38.901Z,2.98
2018-12-25T05:05:07.700Z,2.87
2018-12-25T05:07:36.446Z,2.65
2018-12-25T05:10:06.174Z,2.70
2018-12-25T05:12:35.029Z,3.25
2018-12-25T05:15:04.494Z,2.40
2018-12-25T05:17:33.274Z,2.40
2018-12-25T05:20:02.075Z,2.00
2018-12-25T05:22:30.810Z,2.15
2018-12-25T05:24:59.552Z,3.15
2018-12-25T05:27:47.750Z,2.45
2018-12-25T05:30:35.513Z,2.20
2018-12-25T05:33:23.322Z,2.15
2018-12-25T05:36:11.102Z,2.00
2018-12-25T05:38:58.971Z,1.77
2018-12-25T05:41:47.101Z,2.30
2018-12-25T05:44:34.965Z,1.77
2018-12-25T05:47:22.714Z,2.12
2018-12-25T05:50:10.637Z,1.98
2018-12-25T05:52:58.445Z,1.80
2018-12-25T05:55:46.243Z,1.72
2018-12-25T05:58:34.023Z,1.92
2018-12-25T06:01:21.780Z,2.30
2018-12-25T06:04:09.538Z,2.45
2018-12-25T06:06:57.323Z,1.50
2018-12-25T07:00:26.806Z,2.00
2018-12-25T07:24:14.404Z,1.45
2018-12-25T08:47:47.126Z,2.30
2018-12-25T08:59:26.244Z,2.58
2018-12-25T09:53:10.479Z,1.92
2018-12-25T09:55:52.228Z,2.20
2018-12-25T10:07:32.498Z,1.82
2018-12-25T10:37:06.933Z,2.00
2018-12-25T11:09:53.550Z,1.98
2018-12-25T11:12:35.014Z,2.52
2018-12-25T11:21:27.231Z,2.08
2018-12-25T11:24:08.635Z,1.60
2018-12-25T11:33:01.414Z,1.57
2018-12-25T11:56:34.152Z,1.55
2018-12-25T12:20:09.325Z,2.60
2018-12-25T12:22:50.455Z,2.15
2018-12-25T12:58:34.902Z,2.00
2018-12-25T13:07:29.207Z,2.00
2018-12-25T13:57:54.366Z,1.70
2018-12-25T14:39:27.213Z,2.20
2018-12-25T14:42:07.929Z,1.85
2018-12-25T14:44:46.612Z,2.27
2018-12-25T15:05:35.008Z,3.30
2018-12-25T16:31:47.318Z,3.05
2018-12-25T16:37:40.720Z,2.75
2018-12-25T16:40:21.306Z,3.00
2018-12-25T16:57:56.365Z,2.50
2018-12-25T17:00:25.105Z,3.67
2018-12-25T17:03:13.133Z,3.08
2018-12-25T17:06:00.895Z,3.20
2018-12-25T17:08:48.648Z,2.90
2018-12-25T17:11:36.464Z,3.98
2018-12-25T17:14:24.277Z,4.17
2018-12-25T17:17:12.044Z,3.67
2018-12-25T17:20:00.153Z,3.40
2018-12-25T17:22:48.005Z,3.50
2018-12-25T17:25:35.746Z,3.60
2018-12-25T17:37:12.966Z,3.80
2018-12-25T17:42:54.781Z,4.25
2018-12-25T17:45:42.594Z,3.30
2018-12-25T17:48:30.381Z,3.40
2018-12-25T17:51:18.491Z,3.22
2018-12-25T17:54:10.704Z,3.87
2018-12-25T17:56:56.086Z,2.87
2018-12-25T17:59:44.197Z,3.02
2018-12-25T18:02:31.951Z,3.90
2018-12-25T18:05:00.794Z,6.20
2018-12-25T18:07:48.534Z,4.08
2018-12-25T18:10:36.370Z,3.52
2018-12-25T18:13:17.120Z,2.50
2018-12-25T18:21:55.416Z,2.40
2018-12-25T18:27:49.585Z,2.95
2018-12-25T18:36:29.950Z,3.00
2018-12-25T18:39:18.500Z,3.10
2018-12-25T18:42:06.663Z,2.52
2018-12-25T18:44:55.081Z,2.67
2018-12-25T18:47:42.881Z,2.55
2018-12-25T18:50:30.641Z,2.50
2018-12-25T18:53:18.388Z,1.80
2018-12-25T18:56:06.494Z,2.40
2018-12-25T18:58:54.244Z,2.47
2018-12-25T19:01:42.069Z,2.83
2018-12-25T19:04:10.893Z,2.60
2018-12-25T19:06:58.702Z,2.60
2018-12-25T19:09:46.765Z,2.27
2018-12-25T19:12:34.553Z,2.60
2018-12-25T19:24:14.196Z,2.22
2018-12-25T19:26:42.935Z,2.08
2018-12-25T19:29:31.377Z,2.02
2018-12-25T19:32:19.440Z,2.33
2018-12-25T19:35:07.227Z,2.42
2018-12-25T19:37:35.989Z,3.00
2018-12-25T19:40:24.154Z,1.90
2018-12-25T19:42:52.931Z,2.50
2018-12-25T19:45:40.858Z,2.40
2018-12-25T19:48:29.021Z,2.60
2018-12-25T19:51:17.127Z,1.85
2018-12-25T19:54:05.188Z,3.15
2018-12-25T19:56:53.046Z,3.08
2018-12-25T19:59:40.868Z,2.40
2018-12-25T20:02:28.631Z,1.92
2018-12-25T20:05:36.041Z,2.77
2018-12-25T20:08:44.860Z,1.80
2018-12-25T20:11:52.298Z,1.90
2018-12-25T20:14:40.056Z,2.35
2018-12-25T20:17:48.852Z,2.33
2018-12-25T20:29:27.717Z,2.00
2018-12-25T20:32:17.311Z,1.98
2018-12-25T20:35:24.798Z,2.12
2018-12-25T20:38:12.778Z,1.52
2018-12-25T20:41:00.659Z,2.15
2018-12-25T20:44:08.136Z,2.20
2018-12-25T20:46:55.921Z,2.22
2018-12-25T20:50:03.342Z,1.67
2018-12-25T20:53:10.740Z,1.50
2018-12-25T20:55:58.863Z,1.90
2018-12-25T20:58:47.174Z,4.87
2018-12-25T21:01:54.644Z,2.33
2018-12-25T21:05:02.048Z,1.92
2018-12-25T21:07:49.875Z,1.60
2018-12-25T21:10:58.794Z,2.22
2018-12-25T21:17:18.948Z,1.40
2018-12-25T21:20:26.345Z,1.60
2018-12-25T21:23:33.772Z,1.85
2018-12-25T21:26:21.571Z,1.90
2018-12-25T21:29:09.346Z,1.85
2018-12-25T21:31:57.134Z,1.85
2018-12-25T21:34:25.864Z,1.90
2018-12-25T21:37:13.659Z,1.75
2018-12-25T21:39:43.182Z,1.70
2018-12-25T21:42:31.444Z,1.80
2018-12-25T21:45:19.241Z,2.00
2018-12-25T21:47:48.020Z,1.50
2018-12-25T21:50:16.793Z,3.00
2018-12-25T21:53:06.438Z,2.00
2018-12-25T21:55:35.273Z,1.80
2018-12-25T21:58:04.035Z,2.33
2018-12-25T22:00:35.268Z,2.00
2018-12-25T22:03:03.846Z,1.65
2018-12-25T22:05:32.833Z,2.20
2018-12-25T22:08:20.644Z,1.95
2018-12-25T22:11:08.404Z,1.70
2018-12-25T22:22:59.228Z,2.45
2018-12-25T22:37:36.128Z,2.20
2018-12-25T22:49:28.990Z,2.70
2018-12-25T23:22:02.956Z,2.80
2018-12-25T23:24:50.719Z,2.98
2018-12-25T23:27:38.554Z,2.60
2018-12-25T23:30:26.402Z,2.87
2018-12-25T23:33:14.261Z,2.90
2018-12-25T23:36:02.253Z,2.50
2018-12-25T23:38:50.036Z,2.92
2018-12-25T23:41:37.863Z,3.37
2018-12-25T23:44:25.739Z,3.05
2018-12-25T23:47:13.969Z,2.98
2018-12-25T23:50:01.769Z,3.37
2018-12-25T23:52:49.645Z,3.52
2018-12-25T23:55:37.452Z,3.05
